sensor_id;sensor_type;location;lat;lon;timestamp;P1;durP1;ratioP1;P2;durP2;ratioP2
6561;SDS011;3314;50.890;4.722;2023-06-14T00:00:35;13.5;;;4.1;;
6561;SDS011;3314;50.890;4.722;2023-06-14T00:02:34;11.1;;;3.6;;
6561;SDS011;3314;50.890;4.722;2023-06-14T00:04:35;13.0;;;4.0;;
6561;SDS011;3314;50.890;4.722;2023-06-14T00:06:35;13.2;;;3.2;;
6561;SDS011;3314;50.890;4.722;2023-06-14T00:08:35;12.0;;;4.4;;
6561;SDS011;3314;50.890;4.722;2023-06-14T00:10:35;10.6;;;3.9;;
6561;SDS011;3314;50.890;4.722;2023-06-14T00:12:35;12.0;;;3.9;;
6561;SDS011;3314;50.890;4.722;2023-06-14T00:14:35;11.5;;;4.0;;
6561;SDS011;3314;50.890;4.722;2023-06-14T00:16:35;13.2;;;4.1;;
6561;SDS011;3314;50.890;4.722;2023-06-14T00:18:35;17.7;;;4.7;;
6561;SDS011;3314;50.890;4.722;2023-06-14T00:20:34;11.7;;;4.2;;
6561;SDS011;3314;50.890;4.722;2023-06-14T00:22:34;12.9;;;4.2;;
6561;SDS011;3314;50.890;4.722;2023-06-14T00:24:34;12.8;;;3.8;;
6561;SDS011;3314;50.890;4.722;2023-06-14T00:26:34;12.4;;;3.7;;
6561;SDS011;3314;50.890;4.722;2023-06-14T00:28:33;10.9;;;4.0;;
6561;SDS011;3314;50.890;4.722;2023-06-14T00:30:33;14.4;;;4.2;;
6561;SDS011;3314;50.890;4.722;2023-06-14T00:32:32;13.3;;;4.0;;
6561;SDS011;3314;50.890;4.722;2023-06-14T00:34:32;13.3;;;4.1;;
6561;SDS011;3314;50.890;4.722;2023-06-14T00:36:32;15.9;;;4.1;;
6561;SDS011;3314;50.890;4.722;2023-06-14T00:38:31;14.5;;;4.6;;
6561;SDS011;3314;50.890;4.722;2023-06-14T00:40:31;13.0;;;4.0;;
6561;SDS011;3314;50.890;4.722;2023-06-14T00:42:31;12.1;;;3.9;;
6561;SDS011;3314;50.890;4.722;2023-06-14T00:44:30;11.5;;;4.0;;
6561;SDS011;3314;50.890;4.722;2023-06-14T00:46:30;11.8;;;4.1;;
6561;SDS011;3314;50.890;4.722;2023-06-14T00:48:30;13.5;;;3.9;;
6561;SDS011;3314;50.890;4.722;2023-06-14T00:50:32;11.9;;;4.3;;
6561;SDS011;3314;50.890;4.722;2023-06-14T00:52:33;11.1;;;3.6;;
6561;SDS011;3314;50.890;4.722;2023-06-14T00:54:32;11.2;;;3.5;;
6561;SDS011;3314;50.890;4.722;2023-06-14T00:56:32;10.5;;;3.8;;
6561;SDS011;3314;50.890;4.722;2023-06-14T00:58:32;11.9;;;4.1;;
6561;SDS011;3314;50.890;4.722;2023-06-14T01:00:32;13.0;;;4.4;;
6561;SDS011;3314;50.890;4.722;2023-06-14T01:02:31;11.5;;;4.1;;
6561;SDS011;3314;50.890;4.722;2023-06-14T01:04:31;11.9;;;4.1;;
6561;SDS011;3314;50.890;4.722;2023-06-14T01:06:33;11.6;;;4.1;;
6561;SDS011;3314;50.890;4.722;2023-06-14T01:08:37;14.1;;;4.4;;
6561;SDS011;3314;50.890;4.722;2023-06-14T01:10:41;13.4;;;4.9;;
6561;SDS011;3314;50.890;4.722;2023-06-14T01:12:35;13.4;;;4.4;;
6561;SDS011;3314;50.890;4.722;2023-06-14T01:14:36;11.2;;;4.2;;
6561;SDS011;3314;50.890;4.722;2023-06-14T01:16:40;12.4;;;4.1;;
6561;SDS011;3314;50.890;4.722;2023-06-14T01:18:30;10.2;;;4.0;;
6561;SDS011;3314;50.890;4.722;2023-06-14T01:20:31;13.7;;;4.7;;
6561;SDS011;3314;50.890;4.722;2023-06-14T01:22:31;11.0;;;3.9;;
6561;SDS011;3314;50.890;4.722;2023-06-14T01:24:33;12.5;;;4.6;;
6561;SDS011;3314;50.890;4.722;2023-06-14T01:26:33;11.2;;;4.3;;
6561;SDS011;3314;50.890;4.722;2023-06-14T01:28:34;11.9;;;4.5;;
6561;SDS011;3314;50.890;4.722;2023-06-14T01:30:34;11.8;;;4.9;;
6561;SDS011;3314;50.890;4.722;2023-06-14T01:32:34;15.2;;;5.2;;
6561;SDS011;3314;50.890;4.722;2023-06-14T01:34:34;16.4;;;4.9;;
6561;SDS011;3314;50.890;4.722;2023-06-14T01:36:33;17.2;;;5.7;;
6561;SDS011;3314;50.890;4.722;2023-06-14T01:38:35;12.6;;;5.1;;
6561;SDS011;3314;50.890;4.722;2023-06-14T01:40:35;12.9;;;4.9;;
6561;SDS011;3314;50.890;4.722;2023-06-14T01:42:36;11.5;;;4.9;;
6561;SDS011;3314;50.890;4.722;2023-06-14T01:44:36;18.5;;;5.8;;
6561;SDS011;3314;50.890;4.722;2023-06-14T01:46:36;12.6;;;4.6;;
6561;SDS011;3314;50.890;4.722;2023-06-14T01:48:35;13.7;;;5.3;;
6561;SDS011;3314;50.890;4.722;2023-06-14T01:50:35;11.4;;;4.8;;
6561;SDS011;3314;50.890;4.722;2023-06-14T01:52:36;15.1;;;6.5;;
6561;SDS011;3314;50.890;4.722;2023-06-14T01:54:38;16.2;;;5.5;;
6561;SDS011;3314;50.890;4.722;2023-06-14T01:56:27;14.6;;;5.4;;
6561;SDS011;3314;50.890;4.722;2023-06-14T01:58:27;19.7;;;5.9;;
6561;SDS011;3314;50.890;4.722;2023-06-14T02:00:26;18.4;;;5.2;;
6561;SDS011;3314;50.890;4.722;2023-06-14T02:02:26;12.5;;;4.9;;
6561;SDS011;3314;50.890;4.722;2023-06-14T02:04:26;16.2;;;5.4;;
6561;SDS011;3314;50.890;4.722;2023-06-14T02:06:26;13.3;;;4.8;;
6561;SDS011;3314;50.890;4.722;2023-06-14T02:08:26;12.9;;;5.1;;
6561;SDS011;3314;50.890;4.722;2023-06-14T02:10:26;12.8;;;5.4;;
6561;SDS011;3314;50.890;4.722;2023-06-14T02:12:26;15.0;;;5.4;;
6561;SDS011;3314;50.890;4.722;2023-06-14T02:14:26;12.0;;;5.0;;
6561;SDS011;3314;50.890;4.722;2023-06-14T02:16:28;12.7;;;5.0;;
6561;SDS011;3314;50.890;4.722;2023-06-14T02:18:28;12.3;;;5.1;;
6561;SDS011;3314;50.890;4.722;2023-06-14T02:20:28;15.4;;;5.4;;
6561;SDS011;3314;50.890;4.722;2023-06-14T02:22:28;12.8;;;5.6;;
6561;SDS011;3314;50.890;4.722;2023-06-14T02:24:28;16.9;;;5.9;;
6561;SDS011;3314;50.890;4.722;2023-06-14T02:26:29;16.2;;;5.4;;
6561;SDS011;3314;50.890;4.722;2023-06-14T02:28:28;16.0;;;5.9;;
6561;SDS011;3314;50.890;4.722;2023-06-14T02:30:28;14.6;;;5.7;;
6561;SDS011;3314;50.890;4.722;2023-06-14T02:32:28;15.3;;;6.2;;
6561;SDS011;3314;50.890;4.722;2023-06-14T02:34:28;15.2;;;5.9;;
6561;SDS011;3314;50.890;4.722;2023-06-14T02:36:27;12.9;;;5.2;;
6561;SDS011;3314;50.890;4.722;2023-06-14T02:38:27;13.3;;;5.7;;
6561;SDS011;3314;50.890;4.722;2023-06-14T02:40:27;12.9;;;5.8;;
6561;SDS011;3314;50.890;4.722;2023-06-14T02:42:26;14.3;;;6.0;;
6561;SDS011;3314;50.890;4.722;2023-06-14T02:44:27;15.3;;;5.4;;
6561;SDS011;3314;50.890;4.722;2023-06-14T02:46:26;14.6;;;6.0;;
6561;SDS011;3314;50.890;4.722;2023-06-14T02:48:27;16.3;;;6.0;;
6561;SDS011;3314;50.890;4.722;2023-06-14T02:50:28;12.8;;;5.4;;
6561;SDS011;3314;50.890;4.722;2023-06-14T02:52:28;14.5;;;6.0;;
6561;SDS011;3314;50.890;4.722;2023-06-14T02:54:28;15.6;;;5.6;;
6561;SDS011;3314;50.890;4.722;2023-06-14T02:56:28;16.5;;;5.4;;
6561;SDS011;3314;50.890;4.722;2023-06-14T02:58:28;17.0;;;6.0;;
6561;SDS011;3314;50.890;4.722;2023-06-14T03:00:30;13.8;;;5.3;;
6561;SDS011;3314;50.890;4.722;2023-06-14T03:02:30;14.3;;;5.8;;
6561;SDS011;3314;50.890;4.722;2023-06-14T03:04:29;19.3;;;6.3;;
6561;SDS011;3314;50.890;4.722;2023-06-14T03:06:30;16.6;;;5.8;;
6561;SDS011;3314;50.890;4.722;2023-06-14T03:08:31;13.8;;;5.9;;
6561;SDS011;3314;50.890;4.722;2023-06-14T03:10:31;16.3;;;5.6;;
6561;SDS011;3314;50.890;4.722;2023-06-14T03:12:31;13.1;;;5.6;;
6561;SDS011;3314;50.890;4.722;2023-06-14T03:14:31;15.0;;;6.0;;
6561;SDS011;3314;50.890;4.722;2023-06-14T03:16:32;16.8;;;6.0;;
6561;SDS011;3314;50.890;4.722;2023-06-14T03:18:36;14.7;;;5.8;;
6561;SDS011;3314;50.890;4.722;2023-06-14T03:20:24;17.2;;;6.5;;
6561;SDS011;3314;50.890;4.722;2023-06-14T03:22:26;17.7;;;6.9;;
6561;SDS011;3314;50.890;4.722;2023-06-14T03:24:27;13.9;;;6.0;;
6561;SDS011;3314;50.890;4.722;2023-06-14T03:26:27;16.4;;;6.3;;
6561;SDS011;3314;50.890;4.722;2023-06-14T03:28:27;16.5;;;6.5;;
6561;SDS011;3314;50.890;4.722;2023-06-14T03:30:27;14.0;;;5.5;;
6561;SDS011;3314;50.890;4.722;2023-06-14T03:32:26;18.7;;;7.2;;
6561;SDS011;3314;50.890;4.722;2023-06-14T03:34:26;14.0;;;6.0;;
6561;SDS011;3314;50.890;4.722;2023-06-14T03:36:26;13.8;;;6.0;;
6561;SDS011;3314;50.890;4.722;2023-06-14T03:38:26;15.6;;;5.7;;
6561;SDS011;3314;50.890;4.722;2023-06-14T03:40:27;12.9;;;6.0;;
6561;SDS011;3314;50.890;4.722;2023-06-14T03:42:27;14.2;;;6.1;;
6561;SDS011;3314;50.890;4.722;2023-06-14T03:44:26;16.4;;;6.1;;
6561;SDS011;3314;50.890;4.722;2023-06-14T03:46:26;14.4;;;6.3;;
6561;SDS011;3314;50.890;4.722;2023-06-14T03:48:26;17.8;;;6.7;;
6561;SDS011;3314;50.890;4.722;2023-06-14T03:50:26;14.6;;;6.7;;
6561;SDS011;3314;50.890;4.722;2023-06-14T03:52:26;14.3;;;5.7;;
6561;SDS011;3314;50.890;4.722;2023-06-14T03:54:27;17.1;;;6.3;;
6561;SDS011;3314;50.890;4.722;2023-06-14T03:56:27;16.2;;;6.5;;
6561;SDS011;3314;50.890;4.722;2023-06-14T03:58:27;16.9;;;6.3;;
6561;SDS011;3314;50.890;4.722;2023-06-14T04:00:27;15.2;;;6.5;;
6561;SDS011;3314;50.890;4.722;2023-06-14T04:02:29;15.9;;;6.5;;
6561;SDS011;3314;50.890;4.722;2023-06-14T04:04:30;19.6;;;6.4;;
6561;SDS011;3314;50.890;4.722;2023-06-14T04:06:20;14.8;;;6.2;;
6561;SDS011;3314;50.890;4.722;2023-06-14T04:08:20;14.2;;;5.8;;
6561;SDS011;3314;50.890;4.722;2023-06-14T04:10:21;15.8;;;6.2;;
6561;SDS011;3314;50.890;4.722;2023-06-14T04:12:21;19.8;;;6.3;;
6561;SDS011;3314;50.890;4.722;2023-06-14T04:14:21;15.8;;;6.4;;
6561;SDS011;3314;50.890;4.722;2023-06-14T04:16:21;15.3;;;6.1;;
6561;SDS011;3314;50.890;4.722;2023-06-14T04:18:21;14.9;;;6.3;;
6561;SDS011;3314;50.890;4.722;2023-06-14T04:20:20;16.8;;;7.3;;
6561;SDS011;3314;50.890;4.722;2023-06-14T04:22:20;17.3;;;6.7;;
6561;SDS011;3314;50.890;4.722;2023-06-14T04:24:20;16.3;;;6.0;;
6561;SDS011;3314;50.890;4.722;2023-06-14T04:26:20;14.1;;;6.7;;
6561;SDS011;3314;50.890;4.722;2023-06-14T04:28:20;15.7;;;6.1;;
6561;SDS011;3314;50.890;4.722;2023-06-14T04:30:20;14.3;;;5.9;;
6561;SDS011;3314;50.890;4.722;2023-06-14T04:32:20;12.8;;;6.0;;
6561;SDS011;3314;50.890;4.722;2023-06-14T04:34:19;14.5;;;6.1;;
6561;SDS011;3314;50.890;4.722;2023-06-14T04:36:20;16.9;;;6.1;;
6561;SDS011;3314;50.890;4.722;2023-06-14T04:38:25;13.6;;;5.5;;
6561;SDS011;3314;50.890;4.722;2023-06-14T04:40:25;13.9;;;6.0;;
6561;SDS011;3314;50.890;4.722;2023-06-14T04:42:31;13.8;;;5.4;;
6561;SDS011;3314;50.890;4.722;2023-06-14T04:44:20;16.3;;;6.4;;
6561;SDS011;3314;50.890;4.722;2023-06-14T04:46:19;14.3;;;6.0;;
6561;SDS011;3314;50.890;4.722;2023-06-14T04:48:21;16.3;;;5.9;;
6561;SDS011;3314;50.890;4.722;2023-06-14T04:50:21;16.9;;;6.6;;
6561;SDS011;3314;50.890;4.722;2023-06-14T04:52:21;14.6;;;6.5;;
6561;SDS011;3314;50.890;4.722;2023-06-14T04:54:21;14.0;;;5.7;;
6561;SDS011;3314;50.890;4.722;2023-06-14T04:56:20;12.5;;;5.0;;
6561;SDS011;3314;50.890;4.722;2023-06-14T04:58:20;13.4;;;5.4;;
6561;SDS011;3314;50.890;4.722;2023-06-14T05:00:20;18.6;;;5.8;;
6561;SDS011;3314;50.890;4.722;2023-06-14T05:02:20;16.9;;;5.8;;
6561;SDS011;3314;50.890;4.722;2023-06-14T05:04:20;14.5;;;5.7;;
6561;SDS011;3314;50.890;4.722;2023-06-14T05:06:20;17.5;;;5.9;;
6561;SDS011;3314;50.890;4.722;2023-06-14T05:08:20;15.2;;;5.9;;
6561;SDS011;3314;50.890;4.722;2023-06-14T05:10:20;16.1;;;6.2;;
6561;SDS011;3314;50.890;4.722;2023-06-14T05:12:21;14.5;;;5.4;;
6561;SDS011;3314;50.890;4.722;2023-06-14T05:14:22;16.7;;;6.1;;
6561;SDS011;3314;50.890;4.722;2023-06-14T05:16:23;13.7;;;6.7;;
6561;SDS011;3314;50.890;4.722;2023-06-14T05:18:23;14.3;;;6.1;;
6561;SDS011;3314;50.890;4.722;2023-06-14T05:20:25;12.9;;;5.5;;
6561;SDS011;3314;50.890;4.722;2023-06-14T05:22:13;15.4;;;5.6;;
6561;SDS011;3314;50.890;4.722;2023-06-14T05:24:13;15.1;;;5.4;;
6561;SDS011;3314;50.890;4.722;2023-06-14T05:26:13;15.1;;;5.4;;
6561;SDS011;3314;50.890;4.722;2023-06-14T05:28:13;15.4;;;5.7;;
6561;SDS011;3314;50.890;4.722;2023-06-14T05:30:13;15.9;;;5.5;;
6561;SDS011;3314;50.890;4.722;2023-06-14T05:32:13;12.6;;;5.6;;
6561;SDS011;3314;50.890;4.722;2023-06-14T05:34:13;14.3;;;5.5;;
6561;SDS011;3314;50.890;4.722;2023-06-14T05:36:12;16.0;;;5.8;;
6561;SDS011;3314;50.890;4.722;2023-06-14T05:38:12;13.1;;;5.6;;
6561;SDS011;3314;50.890;4.722;2023-06-14T05:40:12;17.2;;;5.3;;
6561;SDS011;3314;50.890;4.722;2023-06-14T05:42:13;13.9;;;5.9;;
6561;SDS011;3314;50.890;4.722;2023-06-14T05:44:12;17.2;;;6.7;;
6561;SDS011;3314;50.890;4.722;2023-06-14T05:46:12;13.6;;;5.2;;
6561;SDS011;3314;50.890;4.722;2023-06-14T05:48:12;14.7;;;5.4;;
6561;SDS011;3314;50.890;4.722;2023-06-14T05:50:11;14.3;;;5.7;;
6561;SDS011;3314;50.890;4.722;2023-06-14T05:52:13;13.4;;;5.8;;
6561;SDS011;3314;50.890;4.722;2023-06-14T05:54:13;16.4;;;5.3;;
6561;SDS011;3314;50.890;4.722;2023-06-14T05:56:12;15.6;;;5.4;;
6561;SDS011;3314;50.890;4.722;2023-06-14T05:58:14;12.9;;;5.1;;
6561;SDS011;3314;50.890;4.722;2023-06-14T06:00:15;15.4;;;5.7;;
6561;SDS011;3314;50.890;4.722;2023-06-14T06:02:15;14.2;;;5.4;;
6561;SDS011;3314;50.890;4.722;2023-06-14T06:04:14;15.5;;;5.6;;
6561;SDS011;3314;50.890;4.722;2023-06-14T06:06:14;17.8;;;5.9;;
6561;SDS011;3314;50.890;4.722;2023-06-14T06:08:14;16.9;;;5.8;;
6561;SDS011;3314;50.890;4.722;2023-06-14T06:10:14;14.1;;;5.4;;
6561;SDS011;3314;50.890;4.722;2023-06-14T06:12:14;15.4;;;5.1;;
6561;SDS011;3314;50.890;4.722;2023-06-14T06:14:13;18.5;;;6.1;;
6561;SDS011;3314;50.890;4.722;2023-06-14T06:16:13;15.1;;;6.2;;
6561;SDS011;3314;50.890;4.722;2023-06-14T06:18:13;13.8;;;5.8;;
6561;SDS011;3314;50.890;4.722;2023-06-14T06:20:12;15.1;;;5.4;;
6561;SDS011;3314;50.890;4.722;2023-06-14T06:22:12;14.9;;;5.3;;
6561;SDS011;3314;50.890;4.722;2023-06-14T06:24:12;15.0;;;5.7;;
6561;SDS011;3314;50.890;4.722;2023-06-14T06:26:11;17.1;;;5.5;;
6561;SDS011;3314;50.890;4.722;2023-06-14T06:28:11;15.9;;;5.2;;
6561;SDS011;3314;50.890;4.722;2023-06-14T06:30:11;13.7;;;5.3;;
6561;SDS011;3314;50.890;4.722;2023-06-14T06:32:11;18.7;;;6.2;;
6561;SDS011;3314;50.890;4.722;2023-06-14T06:34:11;14.1;;;5.3;;
6561;SDS011;3314;50.890;4.722;2023-06-14T06:36:10;17.0;;;6.2;;
6561;SDS011;3314;50.890;4.722;2023-06-14T06:38:10;14.2;;;4.8;;
6561;SDS011;3314;50.890;4.722;2023-06-14T06:40:11;14.5;;;5.0;;
6561;SDS011;3314;50.890;4.722;2023-06-14T06:42:12;14.8;;;5.5;;
6561;SDS011;3314;50.890;4.722;2023-06-14T06:44:11;20.6;;;5.4;;
6561;SDS011;3314;50.890;4.722;2023-06-14T06:46:11;14.5;;;5.5;;
6561;SDS011;3314;50.890;4.722;2023-06-14T06:48:11;14.4;;;5.0;;
6561;SDS011;3314;50.890;4.722;2023-06-14T06:50:10;19.5;;;5.2;;
6561;SDS011;3314;50.890;4.722;2023-06-14T06:52:10;12.7;;;4.9;;
6561;SDS011;3314;50.890;4.722;2023-06-14T06:54:10;14.9;;;5.8;;
6561;SDS011;3314;50.890;4.722;2023-06-14T06:56:10;13.4;;;5.0;;
6561;SDS011;3314;50.890;4.722;2023-06-14T06:58:10;12.5;;;4.6;;
6561;SDS011;3314;50.890;4.722;2023-06-14T07:00:10;14.3;;;4.5;;
6561;SDS011;3314;50.890;4.722;2023-06-14T07:02:10;13.1;;;5.1;;
6561;SDS011;3314;50.890;4.722;2023-06-14T07:04:10;16.0;;;5.3;;
6561;SDS011;3314;50.890;4.722;2023-06-14T07:06:09;12.8;;;4.4;;
6561;SDS011;3314;50.890;4.722;2023-06-14T07:08:09;15.8;;;4.6;;
6561;SDS011;3314;50.890;4.722;2023-06-14T07:10:09;13.3;;;5.2;;
6561;SDS011;3314;50.890;4.722;2023-06-14T07:12:09;18.1;;;5.7;;
6561;SDS011;3314;50.890;4.722;2023-06-14T07:14:08;14.5;;;5.4;;
6561;SDS011;3314;50.890;4.722;2023-06-14T07:16:08;13.1;;;5.0;;
6561;SDS011;3314;50.890;4.722;2023-06-14T07:18:08;16.0;;;5.5;;
6561;SDS011;3314;50.890;4.722;2023-06-14T07:20:09;12.7;;;4.9;;
6561;SDS011;3314;50.890;4.722;2023-06-14T07:22:09;12.6;;;4.8;;
6561;SDS011;3314;50.890;4.722;2023-06-14T07:24:09;15.2;;;4.6;;
6561;SDS011;3314;50.890;4.722;2023-06-14T07:26:09;12.7;;;4.4;;
6561;SDS011;3314;50.890;4.722;2023-06-14T07:28:08;13.3;;;4.4;;
6561;SDS011;3314;50.890;4.722;2023-06-14T07:30:08;12.3;;;4.9;;
6561;SDS011;3314;50.890;4.722;2023-06-14T07:32:08;13.7;;;4.9;;
6561;SDS011;3314;50.890;4.722;2023-06-14T07:34:08;13.2;;;4.5;;
6561;SDS011;3314;50.890;4.722;2023-06-14T07:36:08;12.7;;;5.0;;
6561;SDS011;3314;50.890;4.722;2023-06-14T07:38:07;13.2;;;4.7;;
6561;SDS011;3314;50.890;4.722;2023-06-14T07:40:09;16.8;;;5.4;;
6561;SDS011;3314;50.890;4.722;2023-06-14T07:42:08;14.6;;;5.2;;
6561;SDS011;3314;50.890;4.722;2023-06-14T07:44:08;13.9;;;5.2;;
6561;SDS011;3314;50.890;4.722;2023-06-14T07:46:09;15.0;;;5.2;;
6561;SDS011;3314;50.890;4.722;2023-06-14T07:48:09;12.2;;;4.9;;
6561;SDS011;3314;50.890;4.722;2023-06-14T07:50:09;14.8;;;4.7;;
6561;SDS011;3314;50.890;4.722;2023-06-14T07:52:09;13.1;;;4.4;;
6561;SDS011;3314;50.890;4.722;2023-06-14T07:54:09;16.7;;;4.7;;
6561;SDS011;3314;50.890;4.722;2023-06-14T07:56:08;13.8;;;4.8;;
6561;SDS011;3314;50.890;4.722;2023-06-14T07:58:08;16.3;;;4.8;;
6561;SDS011;3314;50.890;4.722;2023-06-14T08:00:08;12.4;;;4.9;;
6561;SDS011;3314;50.890;4.722;2023-06-14T08:02:08;11.5;;;4.6;;
6561;SDS011;3314;50.890;4.722;2023-06-14T08:04:08;14.9;;;4.7;;
6561;SDS011;3314;50.890;4.722;2023-06-14T08:06:08;19.9;;;4.6;;
6561;SDS011;3314;50.890;4.722;2023-06-14T08:08:07;16.2;;;4.7;;
6561;SDS011;3314;50.890;4.722;2023-06-14T08:10:07;16.0;;;4.7;;
6561;SDS011;3314;50.890;4.722;2023-06-14T08:12:08;16.8;;;4.8;;
6561;SDS011;3314;50.890;4.722;2023-06-14T08:14:08;14.5;;;4.9;;
6561;SDS011;3314;50.890;4.722;2023-06-14T08:16:07;15.9;;;5.4;;
6561;SDS011;3314;50.890;4.722;2023-06-14T08:18:07;14.7;;;4.4;;
6561;SDS011;3314;50.890;4.722;2023-06-14T08:20:08;17.6;;;4.8;;
6561;SDS011;3314;50.890;4.722;2023-06-14T08:22:12;17.9;;;4.7;;
6561;SDS011;3314;50.890;4.722;2023-06-14T08:24:12;15.3;;;5.0;;
6561;SDS011;3314;50.890;4.722;2023-06-14T08:26:12;12.2;;;4.1;;
6561;SDS011;3314;50.890;4.722;2023-06-14T08:28:12;13.0;;;4.4;;
6561;SDS011;3314;50.890;4.722;2023-06-14T08:30:12;13.5;;;5.1;;
6561;SDS011;3314;50.890;4.722;2023-06-14T08:32:12;16.7;;;5.0;;
6561;SDS011;3314;50.890;4.722;2023-06-14T08:34:12;14.2;;;4.8;;
6561;SDS011;3314;50.890;4.722;2023-06-14T08:36:12;22.9;;;5.0;;
6561;SDS011;3314;50.890;4.722;2023-06-14T08:38:12;12.5;;;4.3;;
6561;SDS011;3314;50.890;4.722;2023-06-14T08:40:19;12.7;;;4.5;;
6561;SDS011;3314;50.890;4.722;2023-06-14T08:42:07;18.2;;;4.7;;
6561;SDS011;3314;50.890;4.722;2023-06-14T08:44:08;17.5;;;6.0;;
6561;SDS011;3314;50.890;4.722;2023-06-14T08:46:12;16.7;;;5.1;;
6561;SDS011;3314;50.890;4.722;2023-06-14T08:48:12;17.5;;;4.7;;
6561;SDS011;3314;50.890;4.722;2023-06-14T08:50:12;13.7;;;4.8;;
6561;SDS011;3314;50.890;4.722;2023-06-14T08:52:13;11.5;;;4.2;;
6561;SDS011;3314;50.890;4.722;2023-06-14T08:54:04;12.0;;;4.2;;
6561;SDS011;3314;50.890;4.722;2023-06-14T08:56:05;15.0;;;4.4;;
6561;SDS011;3314;50.890;4.722;2023-06-14T08:58:05;12.6;;;4.7;;
6561;SDS011;3314;50.890;4.722;2023-06-14T09:00:12;12.1;;;4.9;;
6561;SDS011;3314;50.890;4.722;2023-06-14T09:02:13;14.6;;;5.1;;
6561;SDS011;3314;50.890;4.722;2023-06-14T09:04:03;12.2;;;4.2;;
6561;SDS011;3314;50.890;4.722;2023-06-14T09:06:04;13.7;;;4.3;;
6561;SDS011;3314;50.890;4.722;2023-06-14T09:08:05;19.8;;;5.4;;
6561;SDS011;3314;50.890;4.722;2023-06-14T09:10:07;11.9;;;4.3;;
6561;SDS011;3314;50.890;4.722;2023-06-14T09:12:07;12.5;;;4.0;;
6561;SDS011;3314;50.890;4.722;2023-06-14T09:14:07;11.2;;;4.2;;
6561;SDS011;3314;50.890;4.722;2023-06-14T09:16:06;18.7;;;5.1;;
6561;SDS011;3314;50.890;4.722;2023-06-14T09:18:07;10.8;;;3.8;;
6561;SDS011;3314;50.890;4.722;2023-06-14T09:20:07;12.2;;;3.7;;
6561;SDS011;3314;50.890;4.722;2023-06-14T09:22:12;14.1;;;3.9;;
6561;SDS011;3314;50.890;4.722;2023-06-14T09:24:13;12.2;;;4.2;;
6561;SDS011;3314;50.890;4.722;2023-06-14T09:26:06;17.2;;;4.1;;
6561;SDS011;3314;50.890;4.722;2023-06-14T09:28:06;12.1;;;4.2;;
6561;SDS011;3314;50.890;4.722;2023-06-14T09:30:09;17.0;;;4.3;;
6561;SDS011;3314;50.890;4.722;2023-06-14T09:32:09;11.9;;;3.8;;
6561;SDS011;3314;50.890;4.722;2023-06-14T09:34:09;13.7;;;4.4;;
6561;SDS011;3314;50.890;4.722;2023-06-14T09:36:10;11.2;;;3.5;;
6561;SDS011;3314;50.890;4.722;2023-06-14T09:38:10;15.1;;;3.7;;
6561;SDS011;3314;50.890;4.722;2023-06-14T09:40:10;12.7;;;3.7;;
6561;SDS011;3314;50.890;4.722;2023-06-14T09:42:16;14.0;;;4.4;;
6561;SDS011;3314;50.890;4.722;2023-06-14T09:44:05;17.5;;;4.3;;
6561;SDS011;3314;50.890;4.722;2023-06-14T09:46:04;15.8;;;3.9;;
6561;SDS011;3314;50.890;4.722;2023-06-14T09:48:06;12.9;;;3.6;;
6561;SDS011;3314;50.890;4.722;2023-06-14T09:50:06;14.2;;;4.3;;
6561;SDS011;3314;50.890;4.722;2023-06-14T09:52:06;13.9;;;3.8;;
6561;SDS011;3314;50.890;4.722;2023-06-14T09:54:06;16.6;;;3.7;;
6561;SDS011;3314;50.890;4.722;2023-06-14T09:56:06;16.1;;;3.7;;
6561;SDS011;3314;50.890;4.722;2023-06-14T09:58:07;13.9;;;3.8;;
6561;SDS011;3314;50.890;4.722;2023-06-14T10:00:12;13.4;;;4.0;;
6561;SDS011;3314;50.890;4.722;2023-06-14T10:02:05;16.0;;;4.6;;
6561;SDS011;3314;50.890;4.722;2023-06-14T10:04:06;13.7;;;4.2;;
6561;SDS011;3314;50.890;4.722;2023-06-14T10:06:06;15.3;;;4.1;;
6561;SDS011;3314;50.890;4.722;2023-06-14T10:08:08;13.2;;;4.0;;
6561;SDS011;3314;50.890;4.722;2023-06-14T10:10:08;12.5;;;3.9;;
6561;SDS011;3314;50.890;4.722;2023-06-14T10:12:09;13.4;;;3.5;;
6561;SDS011;3314;50.890;4.722;2023-06-14T10:14:08;9.9;;;3.1;;
6561;SDS011;3314;50.890;4.722;2023-06-14T10:16:10;13.0;;;3.7;;
6561;SDS011;3314;50.890;4.722;2023-06-14T10:18:14;9.6;;;3.2;;
6561;SDS011;3314;50.890;4.722;2023-06-14T10:20:15;11.1;;;3.3;;
6561;SDS011;3314;50.890;4.722;2023-06-14T10:22:06;14.5;;;3.4;;
6561;SDS011;3314;50.890;4.722;2023-06-14T10:24:08;11.1;;;3.2;;
6561;SDS011;3314;50.890;4.722;2023-06-14T10:26:08;12.9;;;3.5;;
6561;SDS011;3314;50.890;4.722;2023-06-14T10:28:14;10.1;;;3.2;;
6561;SDS011;3314;50.890;4.722;2023-06-14T10:30:04;12.2;;;3.8;;
6561;SDS011;3314;50.890;4.722;2023-06-14T10:32:04;10.6;;;3.6;;
6561;SDS011;3314;50.890;4.722;2023-06-14T10:34:04;13.6;;;3.8;;
6561;SDS011;3314;50.890;4.722;2023-06-14T10:36:24;11.3;;;3.9;;
6561;SDS011;3314;50.890;4.722;2023-06-14T10:38:12;9.0;;;2.8;;
6561;SDS011;3314;50.890;4.722;2023-06-14T10:40:15;14.4;;;3.2;;
6561;SDS011;3314;50.890;4.722;2023-06-14T10:42:05;14.0;;;3.4;;
6561;SDS011;3314;50.890;4.722;2023-06-14T10:45:09;13.3;;;3.8;;
6561;SDS011;3314;50.890;4.722;2023-06-14T10:46:14;10.2;;;3.3;;
6561;SDS011;3314;50.890;4.722;2023-06-14T10:48:03;19.2;;;3.7;;
6561;SDS011;3314;50.890;4.722;2023-06-14T10:50:04;9.6;;;2.7;;
6561;SDS011;3314;50.890;4.722;2023-06-14T10:52:07;9.9;;;2.9;;
6561;SDS011;3314;50.890;4.722;2023-06-14T10:54:07;11.0;;;3.2;;
6561;SDS011;3314;50.890;4.722;2023-06-14T10:56:13;11.2;;;3.3;;
6561;SDS011;3314;50.890;4.722;2023-06-14T10:58:10;10.1;;;3.5;;
6561;SDS011;3314;50.890;4.722;2023-06-14T11:00:13;10.6;;;2.9;;
6561;SDS011;3314;50.890;4.722;2023-06-14T11:02:07;15.1;;;3.2;;
6561;SDS011;3314;50.890;4.722;2023-06-14T11:04:07;21.7;;;3.1;;
6561;SDS011;3314;50.890;4.722;2023-06-14T11:06:12;11.3;;;2.8;;
6561;SDS011;3314;50.890;4.722;2023-06-14T11:08:09;13.0;;;3.0;;
6561;SDS011;3314;50.890;4.722;2023-06-14T11:10:12;12.6;;;2.8;;
6561;SDS011;3314;50.890;4.722;2023-06-14T11:12:03;11.9;;;2.9;;
6561;SDS011;3314;50.890;4.722;2023-06-14T11:14:03;10.1;;;2.6;;
6561;SDS011;3314;50.890;4.722;2023-06-14T11:16:03;13.8;;;2.5;;
6561;SDS011;3314;50.890;4.722;2023-06-14T11:18:09;11.2;;;2.9;;
6561;SDS011;3314;50.890;4.722;2023-06-14T11:20:09;17.0;;;3.2;;
6561;SDS011;3314;50.890;4.722;2023-06-14T11:22:09;12.2;;;2.9;;
6561;SDS011;3314;50.890;4.722;2023-06-14T11:24:10;12.0;;;2.9;;
6561;SDS011;3314;50.890;4.722;2023-06-14T11:26:09;18.7;;;3.3;;
6561;SDS011;3314;50.890;4.722;2023-06-14T11:28:09;16.7;;;3.1;;
6561;SDS011;3314;50.890;4.722;2023-06-14T11:30:09;29.1;;;3.0;;
6561;SDS011;3314;50.890;4.722;2023-06-14T11:32:12;9.4;;;2.7;;
6561;SDS011;3314;50.890;4.722;2023-06-14T11:34:12;10.4;;;3.0;;
6561;SDS011;3314;50.890;4.722;2023-06-14T11:36:12;14.3;;;3.0;;
6561;SDS011;3314;50.890;4.722;2023-06-14T11:38:11;13.7;;;2.7;;
6561;SDS011;3314;50.890;4.722;2023-06-14T11:40:12;10.9;;;3.4;;
6561;SDS011;3314;50.890;4.722;2023-06-14T11:42:13;10.4;;;3.0;;
6561;SDS011;3314;50.890;4.722;2023-06-14T11:44:02;10.7;;;3.2;;
6561;SDS011;3314;50.890;4.722;2023-06-14T11:46:02;10.6;;;2.7;;
6561;SDS011;3314;50.890;4.722;2023-06-14T11:48:02;13.0;;;3.1;;
6561;SDS011;3314;50.890;4.722;2023-06-14T11:50:02;13.6;;;2.9;;
6561;SDS011;3314;50.890;4.722;2023-06-14T11:52:02;10.3;;;2.9;;
6561;SDS011;3314;50.890;4.722;2023-06-14T11:54:03;13.8;;;3.1;;
6561;SDS011;3314;50.890;4.722;2023-06-14T11:56:03;12.9;;;3.2;;
6561;SDS011;3314;50.890;4.722;2023-06-14T11:58:03;11.3;;;3.3;;
6561;SDS011;3314;50.890;4.722;2023-06-14T12:00:07;9.7;;;3.1;;
6561;SDS011;3314;50.890;4.722;2023-06-14T12:02:07;12.8;;;2.9;;
6561;SDS011;3314;50.890;4.722;2023-06-14T12:04:07;13.7;;;2.7;;
6561;SDS011;3314;50.890;4.722;2023-06-14T12:06:08;10.7;;;3.0;;
6561;SDS011;3314;50.890;4.722;2023-06-14T12:08:08;10.5;;;3.2;;
6561;SDS011;3314;50.890;4.722;2023-06-14T12:10:08;10.9;;;3.2;;
6561;SDS011;3314;50.890;4.722;2023-06-14T12:12:08;14.6;;;3.4;;
6561;SDS011;3314;50.890;4.722;2023-06-14T12:14:08;10.4;;;2.3;;
6561;SDS011;3314;50.890;4.722;2023-06-14T12:16:08;13.6;;;2.9;;
6561;SDS011;3314;50.890;4.722;2023-06-14T12:18:09;12.8;;;2.4;;
6561;SDS011;3314;50.890;4.722;2023-06-14T12:20:12;11.2;;;2.4;;
6561;SDS011;3314;50.890;4.722;2023-06-14T12:22:12;12.1;;;2.5;;
6561;SDS011;3314;50.890;4.722;2023-06-14T12:24:12;8.9;;;2.7;;
6561;SDS011;3314;50.890;4.722;2023-06-14T12:26:13;9.0;;;2.4;;
6561;SDS011;3314;50.890;4.722;2023-06-14T12:28:12;9.5;;;2.3;;
6561;SDS011;3314;50.890;4.722;2023-06-14T12:30:12;8.8;;;2.1;;
6561;SDS011;3314;50.890;4.722;2023-06-14T12:32:12;11.6;;;2.6;;
6561;SDS011;3314;50.890;4.722;2023-06-14T12:34:12;11.8;;;2.3;;
6561;SDS011;3314;50.890;4.722;2023-06-14T12:36:11;10.2;;;2.2;;